createdAt,value
2023-04-09T00:01:11.085Z,23.83
2023-04-09T00:03:40.441Z,25.40
2023-04-09T00:06:08.765Z,24.07
2023-04-09T00:08:36.897Z,24.80
2023-04-09T00:11:05.826Z,23.03
2023-04-09T00:13:39.232Z,25.13
2023-04-09T00:16:08.700Z,24.57
2023-04-09T00:18:37.268Z,24.57
2023-04-09T00:21:07.187Z,25.40
2023-04-09T00:23:35.853Z,26.03
2023-04-09T00:26:04.136Z,27.13
2023-04-09T00:28:33.773Z,26.40
2023-04-09T00:31:01.992Z,27.33
2023-04-09T00:33:30.461Z,25.37
2023-04-09T00:35:58.702Z,24.57
2023-04-09T00:38:27.072Z,25.37
2023-04-09T00:40:55.210Z,26.23
2023-04-09T00:43:23.364Z,25.60
2023-04-09T00:45:52.985Z,26.40
2023-04-09T00:48:21.986Z,26.77
2023-04-09T00:50:50.173Z,27.50
2023-04-09T00:53:19.194Z,27.50
2023-04-09T00:55:47.571Z,26.93
2023-04-09T00:58:15.834Z,27.63
2023-04-09T01:00:44.003Z,27.10
2023-04-09T01:03:14.505Z,26.90
2023-04-09T01:05:55.359Z,26.43
2023-04-09T01:08:40.066Z,25.83
2023-04-09T01:11:31.555Z,24.93
2023-04-09T01:14:09.743Z,24.93
2023-04-09T01:16:45.833Z,25.37
2023-04-09T01:19:44.430Z,25.77
2023-04-09T01:22:33.780Z,24.50
2023-04-09T01:25:14.513Z,26.37
2023-04-09T01:28:09.024Z,25.50
2023-04-09T01:30:37.902Z,25.17
2023-04-09T01:33:07.997Z,24.13
2023-04-09T01:35:36.237Z,25.57
2023-04-09T01:38:06.180Z,25.80
2023-04-09T01:40:34.508Z,25.87
2023-04-09T01:43:04.330Z,24.10
2023-04-09T01:45:34.781Z,26.27
2023-04-09T01:48:05.509Z,25.27
2023-04-09T01:50:34.826Z,25.97
2023-04-09T01:53:03.749Z,25.60
2023-04-09T01:55:31.853Z,26.87
2023-04-09T01:58:00.268Z,28.40
2023-04-09T02:00:37.659Z,26.93
2023-04-09T02:03:12.454Z,26.70
2023-04-09T02:05:50.220Z,26.50
2023-04-09T02:08:22.930Z,26.37
2023-04-09T02:10:57.714Z,26.20
2023-04-09T02:13:27.188Z,26.13
2023-04-09T02:16:00.677Z,27.37
2023-04-09T02:18:32.489Z,29.53
2023-04-09T02:21:00.988Z,27.60
2023-04-09T02:23:29.269Z,27.80
2023-04-09T02:25:58.076Z,29.40
2023-04-09T02:28:26.327Z,27.83
2023-04-09T02:30:56.051Z,29.33
2023-04-09T02:33:24.182Z,29.33
2023-04-09T02:35:52.303Z,28.47
2023-04-09T02:38:20.701Z,30.10
2023-04-09T02:40:49.069Z,32.10
2023-04-09T02:43:17.204Z,32.23
2023-04-09T02:45:45.504Z,29.53
2023-04-09T02:48:15.012Z,30.17
2023-04-09T02:50:43.354Z,31.23
2023-04-09T02:53:11.533Z,30.93
2023-04-09T02:55:39.637Z,31.13
2023-04-09T02:58:07.772Z,29.43
2023-04-09T03:00:35.925Z,30.03
2023-04-09T03:03:04.257Z,31.17
2023-04-09T03:05:33.863Z,30.67
2023-04-09T03:08:03.166Z,31.10
2023-04-09T03:10:31.286Z,32.00
2023-04-09T03:12:59.383Z,30.43
2023-04-09T03:15:27.600Z,32.47
2023-04-09T03:17:55.866Z,30.90
2023-04-09T03:20:24.188Z,33.00
2023-04-09T03:22:53.655Z,39.37
2023-04-09T03:25:22.014Z,39.23
2023-04-09T03:27:50.152Z,45.40
2023-04-09T03:30:18.287Z,45.27
2023-04-09T03:32:46.428Z,44.37
2023-04-09T03:35:14.732Z,47.37
2023-04-09T03:37:42.856Z,51.07
2023-04-09T03:40:14.297Z,48.70
2023-04-09T03:42:44.518Z,51.70
2023-04-09T03:45:12.860Z,52.83
2023-04-09T03:47:41.161Z,53.30
2023-04-09T03:50:10.395Z,56.03
2023-04-09T03:52:38.486Z,56.13
2023-04-09T03:55:08.126Z,57.27
2023-04-09T03:57:37.647Z,54.40
2023-04-09T04:00:07.890Z,54.20
2023-04-09T04:02:36.189Z,51.07
2023-04-09T04:05:04.540Z,49.90
2023-04-09T04:07:34.224Z,48.47
2023-04-09T04:10:02.338Z,47.30
2023-04-09T04:12:32.733Z,46.17
2023-04-09T04:15:02.525Z,46.10
2023-04-09T04:17:30.872Z,47.37
2023-04-09T04:19:58.988Z,44.00
2023-04-09T04:22:27.287Z,45.63
2023-04-09T04:24:55.437Z,44.27
2023-04-09T04:27:23.792Z,44.57
2023-04-09T04:29:51.879Z,42.47
2023-04-09T04:32:21.471Z,44.00
2023-04-09T04:34:50.937Z,41.40
2023-04-09T04:37:19.068Z,41.37
2023-04-09T04:39:47.273Z,38.43
2023-04-09T04:42:15.357Z,38.83
2023-04-09T04:44:43.697Z,37.83
2023-04-09T04:47:11.902Z,38.47
2023-04-09T04:49:41.689Z,36.87
2023-04-09T04:52:09.883Z,37.87
2023-04-09T04:54:38.292Z,36.33
2023-04-09T04:57:06.496Z,38.00
2023-04-09T04:59:38.589Z,35.73
2023-04-09T05:02:06.907Z,36.63
2023-04-09T05:04:35.251Z,36.03
2023-04-09T05:07:04.939Z,34.60
2023-04-09T05:09:33.121Z,34.50
2023-04-09T05:12:01.589Z,34.83
2023-04-09T05:14:29.879Z,34.53
2023-04-09T05:16:58.290Z,33.37
2023-04-09T05:19:26.530Z,33.57
2023-04-09T05:21:54.786Z,34.03
2023-04-09T05:24:24.485Z,33.43
2023-04-09T05:26:52.799Z,32.97
2023-04-09T05:29:21.114Z,32.90
2023-04-09T05:31:49.333Z,32.90
2023-04-09T05:34:17.458Z,33.00
2023-04-09T05:36:46.066Z,33.87
2023-04-09T05:39:14.156Z,32.13
2023-04-09T05:41:44.816Z,32.03
2023-04-09T05:44:13.118Z,31.97
2023-04-09T05:46:41.316Z,31.50
2023-04-09T05:49:09.494Z,31.40
2023-04-09T05:51:37.627Z,31.40
2023-04-09T05:54:05.792Z,32.10
2023-04-09T05:56:33.916Z,30.40
2023-04-09T05:59:03.489Z,30.40
2023-04-09T06:01:31.707Z,32.07
2023-04-09T06:04:00.192Z,31.20
2023-04-09T06:06:28.758Z,29.73
2023-04-09T06:08:56.917Z,31.50
2023-04-09T06:11:26.016Z,30.27
2023-04-09T06:13:54.251Z,30.07
2023-04-09T06:16:24.293Z,30.53
2023-04-09T06:18:54.522Z,29.80
2023-04-09T06:21:22.936Z,30.63
2023-04-09T06:23:53.646Z,29.87
2023-04-09T06:26:22.204Z,29.70
2023-04-09T06:28:50.296Z,28.70
2023-04-09T06:31:18.679Z,29.80
2023-04-09T06:33:48.215Z,27.87
2023-04-09T06:36:16.341Z,28.13
2023-04-09T06:38:44.601Z,28.20
2023-04-09T06:41:12.841Z,28.87
2023-04-09T06:43:41.115Z,28.57
2023-04-09T06:46:09.583Z,26.87
2023-04-09T06:48:37.854Z,27.33
2023-04-09T06:51:08.590Z,25.37
2023-04-09T06:53:36.758Z,26.23
2023-04-09T06:56:06.168Z,25.40
2023-04-09T06:58:34.538Z,27.40
2023-04-09T07:01:02.774Z,28.13
2023-04-09T07:03:31.285Z,27.67
2023-04-09T07:05:59.678Z,26.10
2023-04-09T07:08:29.381Z,25.10
2023-04-09T07:10:57.570Z,25.03
2023-04-09T07:13:26.269Z,26.30
2023-04-09T07:15:54.458Z,25.93
2023-04-09T07:18:22.604Z,25.73
2023-04-09T07:20:50.952Z,25.30
2023-04-09T07:23:19.155Z,26.20
2023-04-09T07:25:48.721Z,25.00
2023-04-09T07:28:16.902Z,23.83
2023-04-09T07:30:46.228Z,22.90
2023-04-09T07:33:15.491Z,23.20
2023-04-09T07:35:43.594Z,23.23
2023-04-09T07:38:11.707Z,22.70
2023-04-09T07:40:39.963Z,22.53
2023-04-09T07:43:09.515Z,22.93
2023-04-09T07:45:37.654Z,22.23
2023-04-09T07:48:06.138Z,22.07
2023-04-09T07:50:34.281Z,22.73
2023-04-09T07:53:02.337Z,22.27
2023-04-09T07:55:30.391Z,21.80
2023-04-09T07:57:58.763Z,22.87
2023-04-09T08:00:28.326Z,21.03
2023-04-09T08:02:57.436Z,21.23
2023-04-09T08:05:25.897Z,21.40
2023-04-09T08:07:54.224Z,21.13
2023-04-09T08:10:22.400Z,20.50
2023-04-09T08:12:50.801Z,19.90
2023-04-09T08:15:19.147Z,22.47
2023-04-09T08:17:48.715Z,22.33
2023-04-09T08:20:17.582Z,21.10
2023-04-09T08:22:45.721Z,20.70
2023-04-09T08:25:13.948Z,20.30
2023-04-09T08:27:42.073Z,20.37
2023-04-09T08:30:11.925Z,19.50
2023-04-09T08:32:40.112Z,19.87
2023-04-09T08:35:11.061Z,19.73
2023-04-09T08:37:39.625Z,19.40
2023-04-09T08:40:10.642Z,19.17
2023-04-09T08:42:45.833Z,19.43
2023-04-09T08:45:14.874Z,19.13
2023-04-09T08:47:46.465Z,19.53
2023-04-09T08:50:16.445Z,20.70
2023-04-09T08:52:47.670Z,20.83
2023-04-09T08:55:15.872Z,20.47
2023-04-09T08:57:44.392Z,20.57
2023-04-09T09:00:14.272Z,19.27
2023-04-09T09:03:04.188Z,19.07
2023-04-09T09:05:42.709Z,21.00
2023-04-09T09:08:13.007Z,19.90
2023-04-09T09:10:43.825Z,20.30
2023-04-09T09:13:21.198Z,20.23
2023-04-09T09:15:54.012Z,20.97
2023-04-09T09:18:25.348Z,20.83
2023-04-09T09:21:11.376Z,21.00
2023-04-09T09:23:39.501Z,20.17
2023-04-09T09:26:14.519Z,19.27
2023-04-09T09:28:43.182Z,19.20
2023-04-09T09:31:12.487Z,18.63
2023-04-09T09:33:41.248Z,18.93
2023-04-09T09:36:11.264Z,19.17
2023-04-09T09:38:54.942Z,18.57
2023-04-09T09:41:24.883Z,19.93
2023-04-09T09:43:53.290Z,19.93
2023-04-09T09:46:23.391Z,18.23
2023-04-09T09:48:51.765Z,18.63
2023-04-09T09:51:28.313Z,18.13
2023-04-09T09:53:58.189Z,17.77
2023-04-09T09:56:35.679Z,18.03
2023-04-09T09:59:08.671Z,17.67
2023-04-09T10:01:38.979Z,18.63
2023-04-09T10:04:13.586Z,17.93
2023-04-09T10:06:46.156Z,17.60
2023-04-09T10:09:14.849Z,17.63
2023-04-09T10:11:45.429Z,18.50
2023-04-09T10:14:14.694Z,18.50
2023-04-09T10:16:43.215Z,18.77
2023-04-09T10:19:14.097Z,16.93
2023-04-09T10:21:54.684Z,18.70
2023-04-09T10:24:23.950Z,15.73
2023-04-09T10:26:56.135Z,17.73
2023-04-09T10:29:29.965Z,16.97
2023-04-09T10:32:07.439Z,16.90
2023-04-09T10:34:40.294Z,16.10
2023-04-09T10:37:15.397Z,15.37
2023-04-09T10:39:48.353Z,15.57
2023-04-09T10:42:21.946Z,15.13
2023-04-09T10:45:07.435Z,15.37
2023-04-09T10:47:38.125Z,14.50
2023-04-09T10:50:21.261Z,16.47
2023-04-09T10:52:55.301Z,14.93
2023-04-09T10:55:37.241Z,13.27
2023-04-09T10:58:09.034Z,13.87
2023-04-09T11:00:40.875Z,13.73
2023-04-09T11:03:27.398Z,14.00
2023-04-09T11:06:01.992Z,14.37
2023-04-09T11:08:33.988Z,14.27
2023-04-09T11:11:03.567Z,13.53
2023-04-09T11:13:34.053Z,12.83
2023-04-09T11:16:04.074Z,13.80
2023-04-09T11:18:34.480Z,13.47
2023-04-09T11:21:04.428Z,11.90
2023-04-09T11:23:34.697Z,12.83
2023-04-09T11:26:03.021Z,15.10
2023-04-09T11:28:31.175Z,15.03
2023-04-09T11:30:59.292Z,17.17
2023-04-09T11:33:34.323Z,15.73
2023-04-09T11:36:06.046Z,16.73
2023-04-09T11:38:37.631Z,16.42
2023-04-09T11:41:06.061Z,16.70
2023-04-09T11:43:37.306Z,17.60
2023-04-09T11:46:07.830Z,16.73
2023-04-09T11:48:36.604Z,16.17
2023-04-09T11:51:05.397Z,16.10
2023-04-09T11:53:38.404Z,16.63
2023-04-09T11:56:07.170Z,17.00
2023-04-09T11:58:36.485Z,16.15
2023-04-09T12:01:04.756Z,16.42
2023-04-09T12:03:34.040Z,16.17
2023-04-09T12:06:04.004Z,15.17
2023-04-09T12:08:34.577Z,17.48
2023-04-09T12:11:11.937Z,17.93
2023-04-09T12:13:43.351Z,16.05
2023-04-09T12:16:12.240Z,15.93
2023-04-09T12:18:40.613Z,16.40
2023-04-09T12:21:08.818Z,16.30
2023-04-09T12:23:37.111Z,16.80
2023-04-09T12:26:05.709Z,15.87
2023-04-09T12:28:35.462Z,17.43
2023-04-09T12:31:03.792Z,17.45
2023-04-09T12:33:32.227Z,16.92
2023-04-09T12:36:00.580Z,17.70
2023-04-09T12:38:29.009Z,15.90
2023-04-09T12:40:57.212Z,16.17
2023-04-09T12:43:25.351Z,15.70
2023-04-09T12:45:54.972Z,16.23
2023-04-09T12:48:23.127Z,16.15
2023-04-09T12:50:51.588Z,15.52
2023-04-09T12:53:19.748Z,16.23
2023-04-09T12:55:47.853Z,15.98
2023-04-09T12:58:15.988Z,15.73
2023-04-09T13:00:44.708Z,15.88
2023-04-09T13:03:16.518Z,15.60
2023-04-09T13:05:44.858Z,15.07
2023-04-09T13:08:12.978Z,14.95
2023-04-09T13:10:41.317Z,14.63
2023-04-09T13:13:12.168Z,15.43
2023-04-09T13:15:43.160Z,14.93
2023-04-09T13:18:13.424Z,15.33
2023-04-09T13:20:41.793Z,15.43
2023-04-09T13:23:09.897Z,15.05
2023-04-09T13:25:38.188Z,16.08
2023-04-09T13:28:06.439Z,15.65
2023-04-09T13:30:35.603Z,14.35
2023-04-09T13:33:04.021Z,14.75
2023-04-09T13:35:33.684Z,15.43
2023-04-09T13:38:01.962Z,14.57
2023-04-09T13:40:30.357Z,15.13
2023-04-09T13:42:58.522Z,14.23
2023-04-09T13:45:26.662Z,14.68
2023-04-09T13:47:55.148Z,15.52
2023-04-09T13:50:23.442Z,15.70
2023-04-09T13:52:52.966Z,15.60
2023-04-09T13:55:21.262Z,13.88
2023-04-09T13:57:49.447Z,12.90
2023-04-09T14:00:17.786Z,14.10
2023-04-09T14:02:46.564Z,13.07
2023-04-09T14:05:14.781Z,14.00
2023-04-09T14:07:42.949Z,13.75
2023-04-09T14:10:12.796Z,13.23
2023-04-09T14:12:40.949Z,13.15
2023-04-09T14:15:10.326Z,13.13
2023-04-09T14:17:38.633Z,12.75
2023-04-09T14:20:08.575Z,13.40
2023-04-09T14:22:36.999Z,13.07
2023-04-09T14:25:06.524Z,11.70
2023-04-09T14:27:36.444Z,12.40
2023-04-09T14:30:05.429Z,12.48
2023-04-09T14:32:33.628Z,11.98
2023-04-09T14:35:01.982Z,12.07
2023-04-09T14:37:30.640Z,10.50
2023-04-09T14:39:58.922Z,10.70
2023-04-09T14:42:27.083Z,11.43
2023-04-09T14:44:56.556Z,10.95
2023-04-09T14:47:24.836Z,10.05
2023-04-09T14:49:53.052Z,10.95
2023-04-09T14:52:21.763Z,11.30
2023-04-09T14:54:49.876Z,11.13
2023-04-09T14:57:17.996Z,11.87
2023-04-09T14:59:46.143Z,10.97
2023-04-09T15:02:16.311Z,11.45
2023-04-09T15:04:44.737Z,9.57
2023-04-09T15:07:13.048Z,9.95
2023-04-09T15:09:41.556Z,10.38
2023-04-09T15:12:09.944Z,11.00
2023-04-09T15:14:38.171Z,10.20
2023-04-09T15:17:06.529Z,9.75
2023-04-09T15:19:36.343Z,10.05
2023-04-09T15:22:04.457Z,9.45
2023-04-09T15:24:32.689Z,9.80
2023-04-09T15:27:01.193Z,9.32
2023-04-09T15:29:29.327Z,9.18
2023-04-09T15:31:57.551Z,10.20
2023-04-09T15:34:26.112Z,9.20
2023-04-09T15:36:55.895Z,8.55
2023-04-09T15:39:24.655Z,8.32
2023-04-09T15:41:52.874Z,8.55
2023-04-09T15:44:21.106Z,8.45
2023-04-09T15:46:49.282Z,7.38
2023-04-09T15:49:17.682Z,7.55
2023-04-09T15:51:45.810Z,6.80
2023-04-09T15:54:15.514Z,7.07
2023-04-09T15:56:43.843Z,6.50
2023-04-09T15:59:12.092Z,5.82
2023-04-09T16:01:40.894Z,6.27
2023-04-09T16:04:09.336Z,5.35
2023-04-09T16:06:39.272Z,5.63
2023-04-09T16:09:07.527Z,5.30
2023-04-09T16:11:37.466Z,5.67
2023-04-09T16:14:05.763Z,5.63
2023-04-09T16:16:34.005Z,5.68
2023-04-09T16:19:02.296Z,6.33
2023-04-09T16:21:30.446Z,6.05
2023-04-09T16:23:58.679Z,6.28
2023-04-09T16:26:26.933Z,7.03
2023-04-09T16:29:00.034Z,7.80
2023-04-09T16:31:28.201Z,8.10
2023-04-09T16:33:56.377Z,9.00
2023-04-09T16:36:24.542Z,7.87
2023-04-09T16:38:52.976Z,8.80
2023-04-09T16:41:21.375Z,9.10
2023-04-09T16:43:51.068Z,9.13
2023-04-09T16:46:20.716Z,8.82
2023-04-09T16:48:49.057Z,8.60
2023-04-09T16:51:17.620Z,9.00
2023-04-09T16:53:45.805Z,9.07
2023-04-09T16:56:13.948Z,10.17
2023-04-09T16:58:41.992Z,10.43
2023-04-09T17:01:10.571Z,9.50
2023-04-09T17:03:40.176Z,10.63
2023-04-09T17:06:08.575Z,10.50
2023-04-09T17:08:37.031Z,10.50
2023-04-09T17:11:05.523Z,11.00
2023-04-09T17:13:36.133Z,12.00
2023-04-09T17:16:04.708Z,11.10
2023-04-09T17:18:32.804Z,10.77
2023-04-09T17:21:02.726Z,11.20
2023-04-09T17:23:31.074Z,11.90
2023-04-09T17:26:01.175Z,11.40
2023-04-09T17:28:29.423Z,11.00
2023-04-09T17:30:57.543Z,11.50
2023-04-09T17:33:25.996Z,11.00
2023-04-09T17:35:54.347Z,11.53
2023-04-09T17:38:25.105Z,11.70
2023-04-09T17:40:54.867Z,11.50
2023-04-09T17:43:23.299Z,12.93
2023-04-09T17:45:51.414Z,12.40
2023-04-09T17:48:19.692Z,12.53
2023-04-09T17:50:47.786Z,13.70
2023-04-09T17:53:15.879Z,14.50
2023-04-09T17:55:50.712Z,13.50
2023-04-09T17:58:18.970Z,13.50
2023-04-09T18:00:47.120Z,13.63
2023-04-09T18:03:15.642Z,13.47
2023-04-09T18:05:44.309Z,16.40
2023-04-09T18:08:12.719Z,13.40
2023-04-09T18:10:40.844Z,13.10
2023-04-09T18:13:10.313Z,13.70
2023-04-09T18:15:38.652Z,13.10
2023-04-09T18:18:06.760Z,15.40
2023-04-09T18:20:34.852Z,15.33
2023-04-09T18:23:02.946Z,16.90
2023-04-09T18:25:31.057Z,15.67
2023-04-09T18:27:59.311Z,17.67
2023-04-09T18:30:28.758Z,16.27
2023-04-09T18:32:57.117Z,17.60
2023-04-09T18:35:25.347Z,18.20
2023-04-09T18:37:53.505Z,19.27
2023-04-09T18:40:21.862Z,19.63
2023-04-09T18:42:52.671Z,20.37
2023-04-09T18:45:21.047Z,23.30
2023-04-09T18:47:50.513Z,22.50
2023-04-09T18:50:18.907Z,20.80
2023-04-09T18:52:47.181Z,19.30
2023-04-09T18:55:16.195Z,21.30
2023-04-09T18:57:44.876Z,20.57
2023-04-09T19:00:14.435Z,21.67
2023-04-09T19:02:42.657Z,20.93
2023-04-09T19:05:12.761Z,19.63
2023-04-09T19:07:40.998Z,19.47
2023-04-09T19:10:10.125Z,18.73
2023-04-09T19:12:39.253Z,19.33
2023-04-09T19:15:08.803Z,17.50
2023-04-09T19:17:36.893Z,17.23
2023-04-09T19:20:05.828Z,16.97
2023-04-09T19:22:35.239Z,18.20
2023-04-09T19:25:03.387Z,18.33
2023-04-09T19:27:31.623Z,19.80
2023-04-09T19:30:01.009Z,22.13
2023-04-09T19:32:29.161Z,21.97
2023-04-09T19:34:57.262Z,19.10
2023-04-09T19:37:27.867Z,19.10
2023-04-09T19:40:01.163Z,19.53
2023-04-09T19:42:29.535Z,20.50
2023-04-09T19:44:57.578Z,22.10
2023-04-09T19:47:25.829Z,21.43
2023-04-09T19:49:54.000Z,23.67
2023-04-09T19:52:22.704Z,23.37
2023-04-09T19:54:56.249Z,23.57
2023-04-09T19:57:26.338Z,24.03
2023-04-09T19:59:55.070Z,23.93
2023-04-09T20:02:23.698Z,24.60
2023-04-09T20:04:52.263Z,23.70
2023-04-09T20:07:20.475Z,23.70
2023-04-09T20:09:48.638Z,23.90
2023-04-09T20:12:16.773Z,22.83
2023-04-09T20:14:47.005Z,23.23
2023-04-09T20:17:15.311Z,23.13
2023-04-09T20:19:43.585Z,23.13
2023-04-09T20:22:11.642Z,24.13
2023-04-09T20:24:39.944Z,23.53
2023-04-09T20:27:08.025Z,24.23
2023-04-09T20:29:36.198Z,23.83
2023-04-09T20:32:06.363Z,24.20
2023-04-09T20:34:34.755Z,23.60
2023-04-09T20:37:05.481Z,25.50
2023-04-09T20:39:33.707Z,24.40
2023-04-09T20:42:01.843Z,24.67
2023-04-09T20:44:30.313Z,23.97
2023-04-09T20:46:58.385Z,25.20
2023-04-09T20:49:27.810Z,25.00
2023-04-09T20:51:55.898Z,25.37
2023-04-09T20:54:23.933Z,27.83
2023-04-09T20:56:52.177Z,29.40
2023-04-09T20:59:20.358Z,31.87
2023-04-09T21:01:48.780Z,29.30
2023-04-09T21:04:17.070Z,30.03
2023-04-09T21:06:47.647Z,33.27
2023-04-09T21:09:15.981Z,34.47
2023-04-09T21:11:44.061Z,37.10
2023-04-09T21:14:13.491Z,36.20
2023-04-09T21:16:41.868Z,37.13
2023-04-09T21:19:09.982Z,35.83
2023-04-09T21:21:38.955Z,36.30
2023-04-09T21:24:08.374Z,35.40
2023-04-09T21:26:49.283Z,34.33
2023-04-09T21:29:17.878Z,36.67
2023-04-09T21:31:46.002Z,34.27
2023-04-09T21:34:14.035Z,35.67
2023-04-09T21:36:42.225Z,36.10
2023-04-09T21:39:11.735Z,34.70
2023-04-09T21:41:39.989Z,35.10
2023-04-09T21:44:08.916Z,33.40
2023-04-09T21:46:38.129Z,33.53
2023-04-09T21:49:07.053Z,34.97
2023-04-09T21:51:35.184Z,34.90
2023-04-09T21:54:05.199Z,33.20
2023-04-09T21:56:43.682Z,33.60
2023-04-09T21:59:11.788Z,34.53
2023-04-09T22:01:40.014Z,32.13
2023-04-09T22:04:08.378Z,33.07
2023-04-09T22:06:36.636Z,33.70
2023-04-09T22:09:05.240Z,35.03
2023-04-09T22:11:34.383Z,33.27
2023-04-09T22:14:03.927Z,33.90
2023-04-09T22:16:32.114Z,33.83
2023-04-09T22:19:00.460Z,34.73
2023-04-09T22:21:28.614Z,33.97
2023-04-09T22:23:56.793Z,34.27
2023-04-09T22:26:24.941Z,33.50
2023-04-09T22:28:53.356Z,34.03
2023-04-09T22:31:23.181Z,33.53
2023-04-09T22:33:51.501Z,32.70
2023-04-09T22:36:19.849Z,32.87
2023-04-09T22:38:47.949Z,33.30
2023-04-09T22:41:17.477Z,32.83
2023-04-09T22:43:45.616Z,32.40
2023-04-09T22:46:13.723Z,33.60
2023-04-09T22:48:44.924Z,31.80
2023-04-09T22:51:14.097Z,32.40
2023-04-09T22:53:42.235Z,34.20
2023-04-09T22:56:10.944Z,33.23
2023-04-09T22:58:39.554Z,32.93
2023-04-09T23:01:08.576Z,31.83
2023-04-09T23:03:36.749Z,33.40
2023-04-09T23:06:07.151Z,32.43
2023-04-09T23:08:35.253Z,32.80
2023-04-09T23:11:05.186Z,32.50
2023-04-09T23:13:33.486Z,32.70
2023-04-09T23:16:01.642Z,33.13
2023-04-09T23:18:29.794Z,31.60
2023-04-09T23:20:57.936Z,31.50
2023-04-09T23:23:27.473Z,31.87
2023-04-09T23:25:55.761Z,30.93
2023-04-09T23:28:23.906Z,31.40
2023-04-09T23:30:52.137Z,32.43
2023-04-09T23:33:20.920Z,32.10
2023-04-09T23:35:49.119Z,32.43
2023-04-09T23:38:17.422Z,32.30
2023-04-09T23:40:47.865Z,32.00
2023-04-09T23:43:16.069Z,31.23
2023-04-09T23:45:44.845Z,33.23
2023-04-09T23:48:13.427Z,32.17
2023-04-09T23:50:43.001Z,34.47
2023-04-09T23:53:11.474Z,32.43
2023-04-09T23:55:41.283Z,33.83
2023-04-09T23:58:10.854Z,33.23
